Time;durP1;ratioP1;P1;durP2;ratioP2;P2;SDS_P1;SDS_P2;PMS_P1;PMS_P2;Temp;Humidity;BMP_temperature;BMP_pressure;BME280_temperature;BME280_humidity;BME280_pressure;Samples;Min_cycle;Max_cycle;Signal;HPM_P1;HPM_P2
2021/12/24 00:02:02;;;;;;;18.50;15.95;;;13.30;92.30;;;;;;5092907;28;20030;-63
2021/12/24 00:04:28;;;;;;;20.92;15.55;;;13.30;92.30;;;;;;5093036;28;20032;-65
2021/12/24 00:06:53;;;;;;;21.08;15.63;;;13.30;92.40;;;;;;5093048;28;20023;-65
2021/12/24 00:09:22;;;;;;;19.65;16.20;;;13.30;92.30;;;;;;5092780;28;20103;-64
2021/12/24 00:11:55;;;;;;;18.63;13.38;;;13.30;92.40;;;;;;5092840;28;20024;-64
2021/12/24 00:14:23;;;;;;;20.98;15.55;;;13.30;92.30;;;;;;5092850;28;20508;-65
2021/12/24 00:16:53;;;;;;;18.67;15.65;;;13.20;92.40;;;;;;5092833;28;20480;-65
2021/12/24 00:19:37;;;;;;;18.85;15.40;;;13.20;92.40;;;;;;5093162;28;20024;-64
2021/12/24 00:22:46;;;;;;;19.73;16.02;;;13.30;92.50;;;;;;5092804;28;20050;-65
2021/12/24 00:35:56;;;;;;;18.92;14.48;;;13.20;92.60;;;;;;5092761;28;20089;-65
2021/12/24 00:38:23;;;;;;;24.55;16.15;;;13.30;92.70;;;;;;5093881;28;20419;-65
2021/12/24 00:40:48;;;;;;;20.75;16.20;;;13.30;92.60;;;;;;5096573;28;20392;-65
2021/12/24 00:43:16;;;;;;;17.75;14.27;;;13.20;92.70;;;;;;5096507;28;20024;-61
2021/12/24 00:45:44;;;;;;;17.63;12.68;;;13.30;92.70;;;;;;5095199;28;20031;-60
2021/12/24 00:48:14;;;;;;;22.65;16.02;;;13.30;92.50;;;;;;5096438;28;20020;-61
2021/12/24 00:56:05;;;;;;;18.48;14.38;;;13.30;92.70;;;;;;5096733;28;20036;-61
2021/12/24 00:58:31;;;;;;;16.92;14.05;;;13.30;92.60;;;;;;5094877;28;20028;-60
2021/12/24 01:00:57;;;;;;;17.58;15.70;;;13.30;92.70;;;;;;5096360;28;20028;-60
2021/12/24 01:03:22;;;;;;;22.83;16.30;;;13.30;92.80;;;;;;5096121;28;20032;-60
2021/12/24 01:05:48;;;;;;;19.52;14.73;;;13.30;92.90;;;;;;5096118;28;20042;-61
2021/12/24 01:08:15;;;;;;;20.52;13.55;;;13.30;92.90;;;;;;5095597;28;20024;-60
2021/12/24 01:10:44;;;;;;;23.65;15.18;;;13.20;92.80;;;;;;5096189;28;20020;-61
2021/12/24 01:13:10;;;;;;;21.00;14.82;;;13.30;92.80;;;;;;5094497;28;20138;-61
2021/12/24 01:15:42;;;;;;;25.40;14.70;;;13.30;92.90;;;;;;5095833;28;20480;-60
2021/12/24 01:18:17;;;;;;;21.15;15.52;;;13.30;92.90;;;;;;5095896;28;20181;-60
2021/12/24 01:20:47;;;;;;;18.95;13.75;;;13.30;92.90;;;;;;5095966;28;20024;-65
2021/12/24 01:23:29;;;;;;;15.32;12.32;;;13.30;93.30;;;;;;5095397;28;20119;-60
2021/12/24 01:26:09;;;;;;;22.40;14.68;;;13.30;92.70;;;;;;5095944;28;20389;-65
2021/12/24 01:39:24;;;;;;;23.15;14.07;;;13.30;93.00;;;;;;5095972;28;20062;-66
2021/12/24 01:44:55;;;;;;;18.90;12.70;;;13.30;93.00;;;;;;5053280;28;20144;-65
2021/12/24 01:47:21;;;;;;;26.00;13.98;;;13.30;92.90;;;;;;5052779;28;20104;-65
2021/12/24 01:49:46;;;;;;;20.75;13.20;;;13.30;93.00;;;;;;5072680;28;20465;-66
2021/12/24 01:52:15;;;;;;;26.25;15.75;;;13.30;93.00;;;;;;5093644;28;20024;-65
2021/12/24 01:54:41;;;;;;;18.67;13.18;;;13.30;93.10;;;;;;5095516;28;20028;-67
2021/12/24 01:57:07;;;;;;;21.75;12.40;;;13.30;93.10;;;;;;5095103;28;20382;-65
2021/12/24 01:59:33;;;;;;;20.08;13.25;;;13.30;92.90;;;;;;5095292;28;20110;-65
2021/12/24 02:01:59;;;;;;;19.90;12.90;;;13.30;93.10;;;;;;5095200;28;20058;-62
2021/12/24 02:04:24;;;;;;;22.50;14.20;;;13.30;93.10;;;;;;5095079;28;20449;-65
2021/12/24 02:06:50;;;;;;;18.85;12.65;;;13.30;93.10;;;;;;5094463;28;20070;-64
2021/12/24 02:09:16;;;;;;;17.25;13.65;;;13.30;93.10;;;;;;5095152;28;20024;-61
2021/12/24 02:11:42;;;;;;;21.13;13.63;;;13.30;93.20;;;;;;5095104;28;20020;-60
2021/12/24 02:14:11;;;;;;;20.40;13.25;;;13.30;93.20;;;;;;5094769;28;20488;-62
2021/12/24 02:30:05;;;;;;;18.88;12.27;;;13.30;93.30;;;;;;5094462;28;20034;-62
2021/12/24 02:32:31;;;;;;;21.05;14.18;;;13.30;93.30;;;;;;5094573;28;20059;-61
2021/12/24 02:34:56;;;;;;;19.23;12.68;;;13.30;93.30;;;;;;5094280;28;20028;-64
2021/12/24 02:37:22;;;;;;;18.08;12.65;;;13.30;93.40;;;;;;5094383;28;20018;-61
2021/12/24 02:39:47;;;;;;;18.80;12.55;;;13.30;93.30;;;;;;5094315;28;20031;-63
2021/12/24 02:42:15;;;;;;;19.85;13.25;;;13.30;93.30;;;;;;5094180;28;20465;-63
2021/12/24 02:44:41;;;;;;;22.00;12.52;;;13.30;93.40;;;;;;5094124;28;20039;-62
2021/12/24 02:47:35;;;;;;;22.95;12.05;;;13.30;93.50;;;;;;5094439;28;20012;-61
2021/12/24 02:55:21;;;;;;;22.48;13.30;;;13.30;93.60;;;;;;5074267;28;20028;-61
2021/12/24 02:57:49;;;;;;;23.20;13.23;;;13.30;93.70;;;;;;5094026;28;20382;-60
2021/12/24 03:00:20;;;;;;;21.77;12.63;;;13.30;93.70;;;;;;5093575;28;20095;-61
2021/12/24 03:02:48;;;;;;;18.05;12.30;;;13.30;93.70;;;;;;5093881;28;20036;-63
2021/12/24 03:05:16;;;;;;;27.23;12.80;;;13.30;93.70;;;;;;5093650;28;20032;-61
2021/12/24 03:07:43;;;;;;;21.58;11.88;;;13.30;93.80;;;;;;5093673;28;20492;-61
2021/12/24 03:10:16;;;;;;;19.95;12.95;;;13.30;93.90;;;;;;5093662;28;20362;-61
2021/12/24 03:12:44;;;;;;;27.98;12.90;;;13.30;93.90;;;;;;5093590;28;20108;-62
2021/12/24 03:15:14;;;;;;;22.92;14.18;;;13.30;93.90;;;;;;5093609;28;20024;-62
2021/12/24 03:17:47;;;;;;;22.90;13.55;;;13.30;93.90;;;;;;5093373;28;20012;-62
2021/12/24 03:20:12;;;;;;;24.27;14.77;;;13.30;93.80;;;;;;5093693;28;20046;-62
2021/12/24 03:25:07;;;;;;;21.55;15.05;;;13.30;94.00;;;;;;5093682;28;20024;-61
2021/12/24 03:27:32;;;;;;;25.77;15.38;;;13.30;94.00;;;;;;5087779;28;20577;-61
2021/12/24 03:29:58;;;;;;;23.33;15.38;;;13.40;93.90;;;;;;5071623;28;20099;-61
2021/12/24 03:32:24;;;;;;;23.23;15.77;;;13.40;93.90;;;;;;5071208;28;20052;-61
2021/12/24 03:34:51;;;;;;;26.40;16.05;;;13.40;93.90;;;;;;5072850;28;20028;-62
2021/12/24 03:37:16;;;;;;;24.58;15.13;;;13.30;94.00;;;;;;5073229;28;20048;-62
2021/12/24 03:39:42;;;;;;;25.48;15.68;;;13.30;93.90;;;;;;5072519;28;20052;-61
2021/12/24 03:42:08;;;;;;;26.05;17.08;;;13.30;94.00;;;;;;5072708;28;20381;-61
2021/12/24 03:44:41;;;;;;;24.08;17.10;;;13.30;93.80;;;;;;5072979;28;20024;-61
2021/12/24 03:47:16;;;;;;;25.23;15.15;;;13.30;93.90;;;;;;5073036;28;20021;-62
2021/12/24 03:49:55;;;;;;;23.08;15.18;;;13.30;93.90;;;;;;5072929;28;20385;-66
2021/12/24 03:54:57;;;;;;;26.20;17.70;;;13.30;93.90;;;;;;5072925;28;20025;-61
2021/12/24 03:57:28;;;;;;;26.88;16.77;;;13.30;93.90;;;;;;5072869;28;20032;-62
2021/12/24 03:59:56;;;;;;;26.50;16.02;;;13.30;93.80;;;;;;5072963;28;20024;-64
2021/12/24 04:02:22;;;;;;;26.40;15.85;;;13.30;93.80;;;;;;5072769;28;20078;-65
2021/12/24 04:04:48;;;;;;;21.90;15.13;;;13.30;93.80;;;;;;5073068;28;20107;-61
2021/12/24 04:07:14;;;;;;;25.85;15.50;;;13.30;93.80;;;;;;5072967;28;20020;-62
2021/12/24 04:09:48;;;;;;;25.48;15.30;;;13.30;93.60;;;;;;5072789;28;20102;-62
2021/12/24 04:12:14;;;;;;;30.13;14.95;;;13.30;93.60;;;;;;5072650;28;20060;-61
2021/12/24 04:14:39;;;;;;;25.15;16.20;;;13.30;93.60;;;;;;5076679;28;20094;-63
2021/12/24 04:17:07;;;;;;;24.50;15.02;;;13.20;93.80;;;;;;5076603;28;20025;-61
2021/12/24 04:24:56;;;;;;;24.77;12.70;;;13.30;93.80;;;;;;5077288;28;20090;-61
2021/12/24 04:27:29;;;;;;;23.20;11.95;;;13.30;93.70;;;;;;5076840;28;20017;-64
2021/12/24 04:30:04;;;;;;;21.40;11.48;;;13.30;93.70;;;;;;5076755;28;20020;-61
2021/12/24 04:35:37;;;;;;;22.80;12.02;;;13.30;93.70;;;;;;5076740;28;20033;-62
2021/12/24 04:51:28;;;;;;;21.45;11.43;;;13.30;93.50;;;;;;5076267;28;20082;-60
2021/12/24 05:05:07;;;;;;;20.40;9.07;;;13.20;93.70;;;;;;5075865;28;20031;-61
2021/12/24 05:10:17;;;;;;;23.65;9.18;;;13.20;93.70;;;;;;5076230;28;20032;-61
2021/12/24 05:12:43;;;;;;;16.85;8.93;;;13.20;93.70;;;;;;5075682;28;20505;-60
2021/12/24 05:15:10;;;;;;;18.52;9.65;;;13.20;93.70;;;;;;5075673;28;20033;-61
2021/12/24 05:23:05;;;;;;;19.40;10.30;;;13.20;93.70;;;;;;5075720;28;20566;-61
2021/12/24 05:25:30;;;;;;;29.48;12.18;;;13.20;93.80;;;;;;5075108;28;20021;-60
2021/12/24 05:27:56;;;;;;;23.67;11.18;;;13.20;93.90;;;;;;5075495;28;20028;-61
2021/12/24 05:30:23;;;;;;;23.35;10.88;;;13.30;93.80;;;;;;5075138;28;20024;-61
2021/12/24 05:32:49;;;;;;;25.95;12.25;;;13.40;93.40;;;;;;5075737;28;20390;-61
2021/12/24 05:35:15;;;;;;;22.67;11.60;;;13.40;92.80;;;;;;5075736;28;20020;-61
2021/12/24 05:37:40;;;;;;;27.40;14.10;;;13.40;92.80;;;;;;5075338;28;20024;-61
2021/12/24 05:40:07;;;;;;;35.08;14.80;;;13.40;92.70;;;;;;5075310;28;20421;-61
2021/12/24 05:42:33;;;;;;;28.58;14.80;;;13.50;92.70;;;;;;5074919;28;20096;-62
2021/12/24 05:45:05;;;;;;;24.70;14.00;;;13.40;92.70;;;;;;5075060;28;20535;-66
2021/12/24 05:47:32;;;;;;;29.60;16.92;;;13.40;92.70;;;;;;5074042;28;20020;-62
2021/12/24 05:49:58;;;;;;;29.73;16.05;;;13.40;92.70;;;;;;5075217;28;20024;-61
2021/12/24 05:52:24;;;;;;;34.70;17.15;;;13.40;92.70;;;;;;5075213;28;20052;-61
2021/12/24 05:54:50;;;;;;;35.13;18.08;;;13.40;92.90;;;;;;5074994;28;20059;-62
2021/12/24 05:57:16;;;;;;;35.08;17.13;;;13.40;92.80;;;;;;5074709;28;20031;-61
2021/12/24 05:59:42;;;;;;;29.42;16.83;;;13.40;92.90;;;;;;5074950;28;20029;-65
2021/12/24 06:02:07;;;;;;;28.90;18.15;;;13.30;92.70;;;;;;5087620;28;20077;-65
2021/12/24 06:04:33;;;;;;;37.25;19.17;;;13.30;92.90;;;;;;5094707;28;20068;-61
2021/12/24 06:06:58;;;;;;;35.50;19.35;;;13.30;92.80;;;;;;5094124;28;20027;-61
2021/12/24 06:09:24;;;;;;;34.65;19.27;;;13.30;93.10;;;;;;5095013;28;20026;-61
2021/12/24 06:11:50;;;;;;;30.83;17.33;;;13.30;92.90;;;;;;5094929;28;20425;-61
2021/12/24 06:14:16;;;;;;;29.83;18.45;;;13.30;93.00;;;;;;5094469;28;20040;-61
2021/12/24 06:16:48;;;;;;;30.58;18.42;;;13.30;93.10;;;;;;5094711;28;20088;-62
2021/12/24 06:19:16;;;;;;;31.10;18.38;;;13.30;93.10;;;;;;5082463;28;20028;-61
2021/12/24 06:21:41;;;;;;;35.95;18.38;;;13.30;93.00;;;;;;5094945;28;20020;-62
2021/12/24 06:24:07;;;;;;;30.55;18.55;;;13.30;93.10;;;;;;5094657;28;20051;-62
2021/12/24 06:26:33;;;;;;;38.25;20.38;;;13.20;93.20;;;;;;5114541;28;20026;-61
2021/12/24 06:28:58;;;;;;;41.08;20.80;;;13.20;93.20;;;;;;5114859;28;20035;-61
2021/12/24 06:31:24;;;;;;;30.50;19.17;;;13.20;93.30;;;;;;5115106;28;20016;-61
2021/12/24 06:33:50;;;;;;;36.38;20.50;;;13.20;93.10;;;;;;5093457;28;20071;-61
2021/12/24 06:36:15;;;;;;;39.85;21.17;;;13.20;93.30;;;;;;5086689;28;20028;-62
2021/12/24 06:38:41;;;;;;;35.05;21.08;;;13.20;93.30;;;;;;5094414;28;20031;-61
2021/12/24 06:41:08;;;;;;;38.88;20.70;;;13.20;93.10;;;;;;5093995;28;20020;-61
2021/12/24 06:43:34;;;;;;;30.10;18.75;;;13.20;93.10;;;;;;5093883;28;20127;-62
2021/12/24 06:46:00;;;;;;;39.70;22.25;;;13.20;93.20;;;;;;5093284;28;20105;-62
2021/12/24 06:48:26;;;;;;;31.30;19.77;;;13.20;93.30;;;;;;5093052;28;20513;-61
2021/12/24 06:50:52;;;;;;;35.75;20.42;;;13.20;93.10;;;;;;5094229;28;20385;-63
2021/12/24 06:53:17;;;;;;;30.17;18.48;;;13.20;93.50;;;;;;5094106;28;20028;-67
2021/12/24 06:55:43;;;;;;;36.40;19.73;;;13.20;93.00;;;;;;5094105;28;20020;-62
2021/12/24 06:58:09;;;;;;;33.55;18.02;;;13.20;93.20;;;;;;5094087;28;20032;-64
2021/12/24 07:00:35;;;;;;;31.90;18.77;;;13.10;93.20;;;;;;5093652;28;20042;-62
2021/12/24 07:03:01;;;;;;;35.67;17.90;;;13.10;93.30;;;;;;5093895;28;20488;-66
2021/12/24 07:05:26;;;;;;;38.13;18.58;;;13.10;93.30;;;;;;5093880;28;20024;-65
2021/12/24 07:07:52;;;;;;;35.50;18.65;;;13.10;93.30;;;;;;5093711;28;20024;-66
2021/12/24 07:10:18;;;;;;;30.08;17.50;;;13.20;93.30;;;;;;5093268;28;20028;-66
2021/12/24 07:12:44;;;;;;;32.17;18.48;;;13.10;93.40;;;;;;5093823;28;20035;-66
2021/12/24 07:15:10;;;;;;;34.20;17.52;;;13.10;93.50;;;;;;5093427;28;20028;-64
2021/12/24 07:17:36;;;;;;;35.35;17.52;;;13.10;93.70;;;;;;5093759;28;20032;-66
2021/12/24 07:20:02;;;;;;;28.85;17.73;;;13.10;93.60;;;;;;5093428;28;20116;-61
2021/12/24 07:22:28;;;;;;;31.02;17.42;;;13.10;93.70;;;;;;5090580;28;20020;-65
2021/12/24 07:24:53;;;;;;;34.60;17.23;;;13.10;93.70;;;;;;5077450;28;20043;-60
2021/12/24 07:27:19;;;;;;;37.55;18.15;;;13.10;93.90;;;;;;5070014;28;20020;-63
2021/12/24 07:29:45;;;;;;;31.30;17.50;;;13.10;94.10;;;;;;5072389;28;20059;-63
2021/12/24 07:32:11;;;;;;;30.40;17.33;;;13.10;94.10;;;;;;5073065;28;20021;-64
2021/12/24 07:34:36;;;;;;;29.80;17.65;;;13.10;94.30;;;;;;5073186;28;20031;-63
2021/12/24 07:37:02;;;;;;;35.92;17.83;;;13.00;94.30;;;;;;5073161;28;20386;-62
2021/12/24 07:39:28;;;;;;;32.42;18.70;;;13.00;94.40;;;;;;5072760;28;20055;-63
2021/12/24 07:41:53;;;;;;;35.33;16.67;;;12.90;94.50;;;;;;5073171;28;20063;-63
2021/12/24 07:44:19;;;;;;;35.67;19.00;;;13.00;94.50;;;;;;5072726;28;20421;-63
2021/12/24 07:46:53;;;;;;;35.83;17.15;;;13.00;94.60;;;;;;5077208;28;20032;-61
2021/12/24 07:52:12;;;;;;;38.00;16.80;;;13.00;94.50;;;;;;5076236;28;20031;-62
2021/12/24 07:54:45;;;;;;;32.17;16.80;;;13.00;94.50;;;;;;5073966;28;20021;-63
2021/12/24 07:57:13;;;;;;;32.85;17.80;;;13.00;94.50;;;;;;5075707;28;20027;-62
2021/12/24 07:59:40;;;;;;;34.90;18.05;;;13.00;94.50;;;;;;5083328;28;20023;-61
2021/12/24 08:02:14;;;;;;;31.83;17.73;;;13.10;94.50;;;;;;5084230;28;20492;-62
2021/12/24 08:04:40;;;;;;;33.80;19.40;;;13.00;94.50;;;;;;5077347;28;20044;-62
2021/12/24 08:07:06;;;;;;;25.95;16.02;;;13.10;94.40;;;;;;5089374;28;20024;-62
2021/12/24 08:09:32;;;;;;;35.50;15.80;;;13.00;94.50;;;;;;5073742;28;20031;-63
2021/12/24 08:11:57;;;;;;;29.42;14.90;;;13.00;94.50;;;;;;5082571;28;20032;-61
2021/12/24 08:14:23;;;;;;;23.58;11.35;;;13.10;94.40;;;;;;5084970;28;20035;-59
2021/12/24 08:16:49;;;;;;;28.40;16.25;;;13.10;94.20;;;;;;5089623;28;20396;-59
2021/12/24 08:19:16;;;;;;;32.30;16.55;;;13.10;94.40;;;;;;5093112;28;20028;-60
2021/12/24 08:21:45;;;;;;;29.45;16.08;;;13.10;94.30;;;;;;5083579;28;20469;-62
2021/12/24 08:24:11;;;;;;;26.15;15.00;;;13.20;94.30;;;;;;5080361;28;20036;-59
2021/12/24 08:26:37;;;;;;;27.33;17.23;;;13.20;94.20;;;;;;5083163;28;20024;-60
2021/12/24 08:29:03;;;;;;;25.05;13.43;;;13.10;94.30;;;;;;5071722;28;20103;-60
2021/12/24 08:31:29;;;;;;;26.58;14.40;;;13.20;94.20;;;;;;5082505;28;20040;-59
2021/12/24 08:33:55;;;;;;;25.08;10.82;;;13.20;94.20;;;;;;5077002;28;20013;-59
2021/12/24 08:36:20;;;;;;;30.75;15.80;;;13.20;94.20;;;;;;5072009;28;20688;-59
2021/12/24 08:38:46;;;;;;;32.15;15.05;;;13.30;94.10;;;;;;5074589;28;20335;-62
2021/12/24 08:41:12;;;;;;;23.42;13.93;;;13.20;94.20;;;;;;5073266;28;20021;-58
2021/12/24 08:43:37;;;;;;;30.73;16.77;;;13.20;94.30;;;;;;5072671;28;20040;-61
2021/12/24 08:46:03;;;;;;;26.52;14.60;;;13.20;94.20;;;;;;5070184;28;20031;-59
2021/12/24 08:48:28;;;;;;;26.02;14.60;;;13.20;94.20;;;;;;5072528;28;20059;-62
2021/12/24 08:50:54;;;;;;;33.03;15.00;;;13.20;94.20;;;;;;5075029;28;20016;-62
2021/12/24 08:53:23;;;;;;;34.10;15.20;;;13.20;94.20;;;;;;5062035;28;20508;-59
2021/12/24 08:55:48;;;;;;;26.80;15.73;;;13.20;94.20;;;;;;5074877;28;20036;-59
2021/12/24 08:58:15;;;;;;;27.23;14.85;;;13.20;94.20;;;;;;5073500;28;20397;-59
2021/12/24 09:00:42;;;;;;;22.13;10.93;;;13.20;94.20;;;;;;5080092;28;20091;-63
2021/12/24 09:03:08;;;;;;;22.40;11.32;;;13.30;94.30;;;;;;5082155;28;20104;-60
2021/12/24 09:05:33;;;;;;;27.17;14.15;;;13.30;94.40;;;;;;5088043;28;20051;-60
2021/12/24 09:07:59;;;;;;;29.13;15.75;;;13.30;94.30;;;;;;5087943;28;20036;-60
2021/12/24 09:10:25;;;;;;;31.25;15.75;;;13.40;93.90;;;;;;5082413;28;20044;-59
2021/12/24 09:12:51;;;;;;;34.40;16.75;;;13.40;93.70;;;;;;5090563;28;20023;-60
2021/12/24 09:15:18;;;;;;;31.88;16.05;;;13.40;93.80;;;;;;5084900;28;20469;-59
2021/12/24 09:17:46;;;;;;;34.50;16.33;;;13.40;93.70;;;;;;5090407;28;20016;-60
2021/12/24 09:20:15;;;;;;;35.30;16.75;;;13.40;93.80;;;;;;5088072;28;20020;-60
2021/12/24 09:22:42;;;;;;;32.47;16.27;;;13.30;93.70;;;;;;5083136;28;20378;-59
2021/12/24 09:25:09;;;;;;;29.75;15.57;;;13.40;93.80;;;;;;5077052;28;20021;-60
2021/12/24 09:27:35;;;;;;;28.85;15.02;;;13.40;93.80;;;;;;5092738;28;20023;-59
2021/12/24 09:30:00;;;;;;;26.83;15.18;;;13.40;93.80;;;;;;5099064;28;20024;-60
2021/12/24 09:32:29;;;;;;;27.40;15.68;;;13.30;93.70;;;;;;5079524;28;20023;-60
2021/12/24 09:34:55;;;;;;;26.02;14.85;;;13.30;93.70;;;;;;5076282;28;20504;-60
2021/12/24 09:37:21;;;;;;;36.00;15.68;;;13.30;93.70;;;;;;5080175;28;20115;-60
2021/12/24 09:39:47;;;;;;;24.02;10.57;;;13.30;93.70;;;;;;5077773;28;20100;-60
2021/12/24 09:42:13;;;;;;;32.28;12.57;;;13.30;93.90;;;;;;5075642;28;20024;-61
2021/12/24 09:44:39;;;;;;;24.38;11.90;;;13.40;93.90;;;;;;5073258;28;20040;-59
2021/12/24 09:47:05;;;;;;;22.95;13.75;;;13.40;93.90;;;;;;5084367;28;20492;-60
2021/12/24 09:49:31;;;;;;;28.67;14.20;;;13.40;93.90;;;;;;5078451;28;20116;-60
2021/12/24 09:51:57;;;;;;;27.65;15.35;;;13.40;93.90;;;;;;5083702;28;20024;-61
2021/12/24 09:54:25;;;;;;;23.92;11.52;;;13.40;93.90;;;;;;5083980;28;20030;-60
2021/12/24 09:56:53;;;;;;;22.50;12.45;;;13.50;93.90;;;;;;5090479;28;20027;-61
2021/12/24 09:59:19;;;;;;;27.23;14.13;;;13.50;93.80;;;;;;5079410;28;20043;-61
2021/12/24 10:01:55;;;;;;;30.73;15.15;;;13.50;93.80;;;;;;5083669;28;20016;-61
2021/12/24 10:04:23;;;;;;;25.00;13.77;;;13.50;93.70;;;;;;5073192;28;20089;-59
2021/12/24 10:06:59;;;;;;;26.17;15.05;;;13.50;93.80;;;;;;5090683;28;20106;-61
2021/12/24 10:09:35;;;;;;;23.65;12.90;;;13.50;93.70;;;;;;5080303;28;20029;-61
2021/12/24 10:12:13;;;;;;;20.17;10.90;;;13.50;93.80;;;;;;5080122;28;20023;-61
2021/12/24 10:14:49;;;;;;;28.92;15.38;;;13.60;93.90;;;;;;5081845;28;20041;-61
2021/12/24 10:17:28;;;;;;;24.60;13.27;;;13.60;93.80;;;;;;5074596;28;20150;-60
2021/12/24 10:19:59;;;;;;;25.77;14.00;;;13.60;93.90;;;;;;5078433;28;20040;-60
2021/12/24 10:22:25;;;;;;;23.48;14.38;;;13.70;93.90;;;;;;5072578;28;20504;-60
2021/12/24 10:25:06;;;;;;;28.02;14.65;;;13.70;93.80;;;;;;5086497;28;20054;-60
2021/12/24 10:27:34;;;;;;;27.52;12.13;;;13.70;93.70;;;;;;5080478;28;20020;-61
2021/12/24 10:30:13;;;;;;;27.95;13.80;;;13.70;93.70;;;;;;5085455;28;20032;-61
2021/12/24 10:32:39;;;;;;;31.35;12.85;;;13.80;93.70;;;;;;5084939;28;20327;-60
2021/12/24 10:35:18;;;;;;;29.70;15.38;;;13.80;93.70;;;;;;5074031;28;20028;-61
2021/12/24 10:37:44;;;;;;;28.50;16.35;;;13.80;93.40;;;;;;5081246;28;20370;-60
2021/12/24 10:40:10;;;;;;;35.17;16.13;;;13.80;93.40;;;;;;5075638;28;20465;-59
2021/12/24 10:42:39;;;;;;;32.35;15.80;;;13.80;93.30;;;;;;5075937;28;20028;-60
2021/12/24 10:45:08;;;;;;;24.77;14.50;;;13.70;93.30;;;;;;5075367;28;20028;-61
2021/12/24 10:47:37;;;;;;;29.42;15.85;;;13.80;93.40;;;;;;5090125;28;20484;-61
2021/12/24 10:53:15;;;;;;;34.28;15.75;;;13.80;93.60;;;;;;5082547;28;20044;-61
2021/12/24 10:55:52;;;;;;;32.72;16.65;;;13.80;93.30;;;;;;5073148;28;20024;-60
2021/12/24 10:58:27;;;;;;;31.77;15.82;;;13.90;93.20;;;;;;5080417;28;20021;-60
2021/12/24 11:00:53;;;;;;;32.45;16.10;;;13.90;93.00;;;;;;5072470;28;20482;-60
2021/12/24 11:03:28;;;;;;;33.25;17.35;;;13.90;93.20;;;;;;5080725;28;20044;-61
2021/12/24 11:06:03;;;;;;;35.38;16.90;;;13.90;92.90;;;;;;5083257;28;20409;-60
2021/12/24 11:08:29;;;;;;;28.38;17.17;;;13.80;92.90;;;;;;5080560;28;20036;-60
2021/12/24 11:11:00;;;;;;;31.65;17.02;;;13.90;92.80;;;;;;5081173;28;20485;-60
2021/12/24 11:13:40;;;;;;;29.50;16.05;;;13.80;92.80;;;;;;5074468;28;20029;-60
2021/12/24 11:16:08;;;;;;;31.23;16.90;;;13.80;92.90;;;;;;5079238;28;20044;-61
2021/12/24 11:18:39;;;;;;;30.10;17.48;;;13.90;93.00;;;;;;5077220;28;20024;-60
2021/12/24 11:21:27;;;;;;;28.57;17.33;;;13.90;92.80;;;;;;5076011;28;20040;-61
2021/12/24 11:23:53;;;;;;;24.75;16.85;;;13.90;92.80;;;;;;5076191;28;20075;-59
2021/12/24 11:26:23;;;;;;;38.40;18.98;;;13.80;92.80;;;;;;5071637;28;20033;-59
2021/12/24 11:28:49;;;;;;;32.35;19.30;;;13.90;92.80;;;;;;5076840;28;20020;-59
2021/12/24 11:31:18;;;;;;;28.60;17.50;;;13.90;92.80;;;;;;5079384;28;20035;-59
2021/12/24 11:33:46;;;;;;;30.65;18.25;;;13.80;92.80;;;;;;5076612;28;20016;-60
2021/12/24 11:36:15;;;;;;;37.05;19.38;;;13.90;92.90;;;;;;5078399;28;20020;-60
2021/12/24 11:38:43;;;;;;;31.35;17.80;;;13.80;92.90;;;;;;5083650;28;20024;-60
2021/12/24 11:41:13;;;;;;;31.02;17.88;;;13.80;92.90;;;;;;5081148;28;20111;-60
2021/12/24 11:43:42;;;;;;;32.00;17.75;;;13.90;92.80;;;;;;5071981;28;20032;-60
2021/12/24 11:46:11;;;;;;;34.72;17.65;;;13.90;92.80;;;;;;5089195;28;20028;-61
2021/12/24 11:48:38;;;;;;;28.20;18.75;;;13.90;92.80;;;;;;5092700;28;20052;-60
2021/12/24 11:51:25;;;;;;;30.80;18.05;;;13.90;92.60;;;;;;5075925;28;20069;-60
2021/12/24 11:53:53;;;;;;;26.98;13.80;;;13.90;92.70;;;;;;5092507;28;20107;-60
2021/12/24 11:56:20;;;;;;;27.15;13.55;;;14.10;93.80;;;;;;5091242;28;20027;-60
2021/12/24 11:58:53;;;;;;;28.25;14.27;;;14.10;93.40;;;;;;5092721;28;20032;-60
2021/12/24 12:01:22;;;;;;;23.52;15.02;;;14.20;93.00;;;;;;5077565;28;20541;-59
2021/12/24 12:03:52;;;;;;;23.48;14.25;;;14.20;92.70;;;;;;5086878;28;20036;-60
2021/12/24 12:06:17;;;;;;;24.58;13.73;;;14.30;92.60;;;;;;5078955;28;20499;-60
2021/12/24 12:08:49;;;;;;;27.55;17.65;;;14.30;92.40;;;;;;5074226;28;20024;-60
2021/12/24 12:11:19;;;;;;;29.52;18.58;;;14.30;92.00;;;;;;5075764;28;20285;-60
2021/12/24 12:14:01;;;;;;;28.48;18.70;;;14.30;91.90;;;;;;5072630;28;20595;-60
2021/12/24 12:16:28;;;;;;;;;;;14.30;91.90;;;;;;5075119;28;20040;-61
2021/12/24 12:19:11;;;;;;;27.15;18.30;;;14.20;92.00;;;;;;5074471;28;19961;-69
2021/12/24 12:21:44;;;;;;;28.52;17.40;;;14.10;92.10;;;;;;5078533;28;20078;-77
2021/12/24 12:26:41;;;;;;;27.27;17.52;;;14.10;92.20;;;;;;5077544;28;20085;-59
2021/12/24 12:29:29;;;;;;;25.15;15.20;;;14.20;92.20;;;;;;5070744;28;20359;-60
2021/12/24 12:32:12;;;;;;;27.55;16.92;;;14.20;92.40;;;;;;5073060;28;20463;-61
2021/12/24 12:34:38;;;;;;;31.88;17.30;;;14.20;92.20;;;;;;5084711;28;20385;-60
2021/12/24 12:37:18;;;;;;;32.30;17.85;;;14.20;92.20;;;;;;5082220;28;20493;-60
2021/12/24 12:39:46;;;;;;;29.00;17.70;;;14.10;92.40;;;;;;5082688;28;20053;-59
2021/12/24 12:42:17;;;;;;;28.85;16.05;;;14.10;92.50;;;;;;5078808;28;20025;-61
2021/12/24 12:44:48;;;;;;;23.88;10.88;;;14.10;92.60;;;;;;5083407;28;20474;-67
2021/12/24 12:47:27;;;;;;;17.73;9.20;;;14.20;93.00;;;;;;5088679;28;20027;-62
2021/12/24 12:50:27;;;;;;;27.95;10.35;;;14.30;93.40;;;;;;5090146;28;20039;-61
2021/12/24 12:53:27;;;;;;;28.13;15.55;;;14.40;93.10;;;;;;5042204;28;20055;-63
2021/12/24 12:56:10;;;;;;;25.20;15.13;;;14.40;92.60;;;;;;5084322;28;20061;-60
2021/12/24 12:58:36;;;;;;;27.35;15.27;;;14.40;92.40;;;;;;5099149;28;20546;-61
2021/12/24 13:01:05;;;;;;;23.75;15.05;;;14.30;92.30;;;;;;5087477;28;20024;-62
2021/12/24 13:03:32;;;;;;;30.10;16.77;;;14.30;92.30;;;;;;5084423;28;20035;-59
2021/12/24 13:06:04;;;;;;;28.60;19.67;;;14.40;92.10;;;;;;5081890;28;20111;-59
2021/12/24 13:08:36;;;;;;;27.90;17.40;;;14.40;91.90;;;;;;5075282;28;20032;-61
2021/12/24 13:11:08;;;;;;;23.42;17.17;;;14.40;91.90;;;;;;5085226;28;20024;-62
2021/12/24 13:13:57;;;;;;;24.60;15.73;;;14.40;92.00;;;;;;5079041;28;20031;-62
2021/12/24 13:16:53;;;;;;;23.83;14.75;;;14.30;92.30;;;;;;5079245;28;20539;-61
2021/12/24 13:19:33;;;;;;;23.27;15.63;;;14.30;92.30;;;;;;5078288;28;20029;-63
2021/12/24 13:24:55;;;;;;;27.63;16.02;;;14.30;92.40;;;;;;5092011;28;20112;-63
2021/12/24 13:27:50;;;;;;;26.20;15.43;;;14.30;92.50;;;;;;5076512;28;20033;-63
2021/12/24 13:30:27;;;;;;;24.55;15.30;;;14.30;92.60;;;;;;5077350;28;20036;-64
2021/12/24 13:32:56;;;;;;;28.77;14.52;;;14.40;92.20;;;;;;5081068;28;20027;-64
2021/12/24 13:35:45;;;;;;;22.15;14.70;;;14.40;92.00;;;;;;5074993;28;20024;-64
2021/12/24 13:38:27;;;;;;;24.00;14.70;;;14.50;92.10;;;;;;5082425;28;20020;-63
2021/12/24 13:40:54;;;;;;;25.42;14.27;;;14.40;92.10;;;;;;5078329;28;20027;-63
2021/12/24 13:43:20;;;;;;;24.42;13.43;;;14.40;92.30;;;;;;5081692;28;20047;-63
2021/12/24 13:45:49;;;;;;;21.48;13.55;;;14.40;92.50;;;;;;5086429;28;20032;-62
2021/12/24 13:48:28;;;;;;;23.02;11.23;;;14.40;92.50;;;;;;5078934;28;20060;-62
2021/12/24 13:56:19;;;;;;;20.83;12.90;;;14.60;92.90;;;;;;5078157;28;20125;-63
2021/12/24 13:58:52;;;;;;;19.95;12.40;;;14.60;92.40;;;;;;5080004;28;20040;-60
2021/12/24 14:01:22;;;;;;;22.77;14.88;;;14.70;92.20;;;;;;5079089;28;20024;-60
2021/12/24 14:03:49;;;;;;;24.23;15.40;;;14.60;91.90;;;;;;5076088;28;20036;-60
2021/12/24 14:06:15;;;;;;;24.33;16.15;;;14.70;91.50;;;;;;5079955;28;20016;-59
2021/12/24 14:08:41;;;;;;;30.40;16.77;;;14.70;91.50;;;;;;5080097;28;20688;-59
2021/12/24 14:11:18;;;;;;;24.92;15.85;;;14.70;91.50;;;;;;5080363;28;20523;-58
2021/12/24 14:13:49;;;;;;;24.38;16.77;;;14.70;91.50;;;;;;5076435;28;20052;-59
2021/12/24 14:18:47;;;;;;;28.33;17.70;;;14.60;91.40;;;;;;5082719;28;20198;-60
2021/12/24 14:24:25;;;;;;;28.70;16.30;;;14.60;91.30;;;;;;5085339;28;20673;-60
2021/12/24 14:26:58;;;;;;;28.73;16.17;;;14.60;91.30;;;;;;5083380;28;20378;-60
2021/12/24 14:29:30;;;;;;;26.75;17.33;;;14.60;91.20;;;;;;5079431;28;20025;-62
2021/12/24 14:31:59;;;;;;;20.48;11.35;;;14.60;91.20;;;;;;5077549;28;20107;-60
2021/12/24 14:34:30;;;;;;;27.48;17.13;;;14.60;91.60;;;;;;5082949;28;20082;-61
2021/12/24 14:37:00;;;;;;;28.20;17.83;;;14.70;91.20;;;;;;5078263;28;20028;-61